Time;durP1;ratioP1;P1;durP2;ratioP2;P2;SDS_P1;SDS_P2;PMS_P1;PMS_P2;Temp;Humidity;BMP_temperature;BMP_pressure;BME280_temperature;BME280_humidity;BME280_pressure;Samples;Min_cycle;Max_cycle;Signal;HPM_P1;HPM_P2
2022/05/13 00:01:05;;;;;;;0.10;0.10;;;;;;;22.35;43.26;101470.50;5124167;28;20039;-31
2022/05/13 00:03:31;;;;;;;0.10;0.10;;;;;;;22.34;43.19;101471.63;5125204;28;20123;-31
2022/05/13 00:05:57;;;;;;;0.10;0.10;;;;;;;22.34;43.30;101474.41;5124547;28;20248;-29
2022/05/13 00:08:23;;;;;;;0.10;0.10;;;;;;;22.34;43.21;101470.81;5122923;28;20737;-29
2022/05/13 00:10:49;;;;;;;0.10;0.10;;;;;;;22.34;43.27;101462.47;5124946;28;20043;-30
2022/05/13 00:13:14;;;;;;;0.10;0.10;;;;;;;22.33;43.22;101461.66;5124817;28;20081;-30
2022/05/13 00:15:44;;;;;;;0.10;0.10;;;;;;;22.33;43.23;101469.97;5125064;28;20044;-30
2022/05/13 00:18:10;;;;;;;0.10;0.10;;;;;;;22.33;43.21;101464.44;5121752;28;20047;-29
2022/05/13 00:20:37;;;;;;;0.10;0.10;;;;;;;22.33;43.27;101467.22;5125256;28;20114;-32
2022/05/13 00:23:03;;;;;;;0.10;0.10;;;;;;;22.33;43.17;101469.97;5124108;28;20127;-32
2022/05/13 00:25:32;;;;;;;0.10;0.10;;;;;;;22.34;43.11;101468.03;5124796;28;20039;-30
2022/05/13 00:28:00;;;;;;;0.10;0.10;;;;;;;22.34;43.26;101468.03;5104700;28;20124;-30
2022/05/13 00:30:27;;;;;;;0.10;0.10;;;;;;;22.34;43.35;101473.56;5123000;27;20137;-29
2022/05/13 00:32:52;;;;;;;0.10;0.10;;;;;;;22.34;43.29;101473.56;5125813;28;20130;-31
2022/05/13 00:35:19;;;;;;;0.10;0.10;;;;;;;22.33;43.28;101460.84;5124342;28;20500;-29
2022/05/13 00:37:45;;;;;;;0.10;0.10;;;;;;;22.33;43.29;101460.84;5125750;28;20096;-30
2022/05/13 00:40:12;;;;;;;0.10;0.10;;;;;;;22.33;43.20;101458.88;5122038;28;20047;-29
2022/05/13 00:42:38;;;;;;;0.10;0.10;;;;;;;22.33;43.17;101458.88;5121747;28;20061;-30
2022/05/13 00:45:05;;;;;;;0.10;0.10;;;;;;;22.33;43.23;101447.78;5122896;28;20448;-30
2022/05/13 00:47:31;;;;;;;0.10;0.10;;;;;;;22.33;43.31;101449.72;5123734;28;20075;-29
2022/05/13 00:49:59;;;;;;;0.10;0.10;;;;;;;22.32;43.20;101448.06;5120057;28;20047;-29
2022/05/13 00:52:26;;;;;;;0.10;0.10;;;;;;;22.32;43.28;101454.44;5119369;28;20143;-31
2022/05/13 00:54:53;;;;;;;0.10;0.10;;;;;;;22.32;43.23;101448.88;5124662;28;20126;-31
2022/05/13 00:57:21;;;;;;;0.10;0.10;;;;;;;22.32;43.15;101442.50;5122688;28;20122;-30
2022/05/13 00:59:48;;;;;;;0.10;0.10;;;;;;;22.31;43.33;101440.84;5120998;27;20085;-30
2022/05/13 01:02:15;;;;;;;0.10;0.10;;;;;;;22.32;43.19;101446.09;5122583;28;20324;-30
2022/05/13 01:04:42;;;;;;;0.10;0.10;;;;;;;22.32;43.04;101440.56;5122120;28;20051;-30
2022/05/13 01:07:12;;;;;;;0.10;0.10;;;;;;;22.31;43.21;101446.41;5122019;28;20500;-30
2022/05/13 01:09:41;;;;;;;0.10;0.10;;;;;;;22.32;43.31;101442.50;5123357;28;20129;-31
2022/05/13 01:12:10;;;;;;;0.10;0.10;;;;;;;22.31;43.32;101450.00;5122387;28;20081;-30
2022/05/13 01:14:40;;;;;;;0.10;0.10;;;;;;;22.31;43.21;101457.50;5122435;28;20490;-33
2022/05/13 01:20:15;;;;;;;0.10;0.10;;;;;;;22.31;43.28;101449.19;5088535;28;20521;-30
2022/05/13 01:22:45;;;;;;;0.10;0.10;;;;;;;22.31;43.23;101438.06;5123025;28;20051;-30
2022/05/13 01:25:14;;;;;;;0.10;0.10;;;;;;;22.31;43.12;101444.44;5124335;28;20137;-32
2022/05/13 01:27:40;;;;;;;;;;;;;;;22.31;43.24;101443.63;5106819;28;20939;-30
2022/05/13 01:30:06;;;;;;;0.10;0.10;;;;;;;22.29;43.21;101447.53;5105814;27;20753;-30
2022/05/13 01:32:32;;;;;;;0.10;0.10;;;;;;;22.29;43.30;101444.75;5122839;28;20045;-31
2022/05/13 01:34:58;;;;;;;0.10;0.10;;;;;;;22.29;43.39;101450.31;5120379;28;20051;-31
2022/05/13 01:37:24;;;;;;;0.10;0.10;;;;;;;22.29;43.50;101444.75;5124743;28;20043;-32
2022/05/13 01:39:49;;;;;;;0.10;0.10;;;;;;;22.30;43.25;101442.81;5122968;28;20650;-30
2022/05/13 01:42:15;;;;;;;0.10;0.10;;;;;;;22.29;43.30;101444.75;5123887;28;20051;-29
2022/05/13 01:44:41;;;;;;;0.10;0.10;;;;;;;22.28;43.29;101445.88;5123318;28;20043;-30
2022/05/13 01:47:07;;;;;;;0.10;0.10;;;;;;;22.29;43.36;101450.31;5122564;28;20312;-31
2022/05/13 01:49:32;;;;;;;0.10;0.10;;;;;;;22.28;43.41;101440.31;5122135;28;20039;-32
2022/05/13 01:51:58;;;;;;;0.10;0.10;;;;;;;22.29;43.25;101444.75;5123661;28;20054;-30
2022/05/13 01:54:24;;;;;;;0.10;0.10;;;;;;;22.29;43.23;101446.69;5126127;28;20056;-31
2022/05/13 01:56:50;;;;;;;0.10;0.10;;;;;;;22.28;43.40;101448.66;5122936;28;20092;-30
2022/05/13 01:59:15;;;;;;;0.10;0.10;;;;;;;22.28;43.26;101445.88;5122293;28;20051;-29
2022/05/13 02:01:41;;;;;;;0.10;0.10;;;;;;;22.28;43.30;101432.00;5123458;28;20063;-30
2022/05/13 02:04:07;;;;;;;0.10;0.10;;;;;;;22.29;43.22;101443.94;5120953;28;20470;-30
2022/05/13 02:06:32;;;;;;;0.10;0.10;;;;;;;22.29;43.31;101435.59;5124277;28;20039;-30
2022/05/13 02:08:59;;;;;;;0.10;0.10;;;;;;;22.28;43.20;101440.31;5122568;28;20039;-29
2022/05/13 02:11:27;;;;;;;0.10;0.10;;;;;;;22.27;43.42;101438.66;5125338;27;20483;-30
2022/05/13 02:13:53;;;;;;;0.10;0.10;;;;;;;22.29;43.09;101438.38;5091166;28;20134;-30
2022/05/13 02:16:19;;;;;;;0.10;0.10;;;;;;;22.28;43.23;101440.31;5124692;28;20519;-30
2022/05/13 02:18:45;;;;;;;0.10;0.10;;;;;;;22.27;43.38;101446.97;5124156;28;20540;-30
2022/05/13 02:21:10;;;;;;;0.10;0.10;;;;;;;22.28;43.26;101451.44;5125820;28;20088;-29
2022/05/13 02:23:37;;;;;;;0.10;0.10;;;;;;;22.28;43.35;101462.53;5124180;28;20039;-29
2022/05/13 02:26:06;;;;;;;0.10;0.10;;;;;;;22.28;43.26;101458.94;5124788;28;20141;-30
2022/05/13 02:28:31;;;;;;;0.10;0.10;;;;;;;22.27;43.25;101458.06;5123891;28;20496;-30
2022/05/13 02:30:59;;;;;;;0.10;0.10;;;;;;;22.28;43.30;101467.25;5106645;28;20104;-30
2022/05/13 02:33:25;;;;;;;0.00;0.00;;;;;;;22.29;43.25;101460.56;5125970;28;20047;-32
2022/05/13 02:35:51;;;;;;;0.10;0.10;;;;;;;22.27;43.30;101462.78;5125850;28;20082;-29
2022/05/13 02:38:17;;;;;;;0.10;0.10;;;;;;;22.27;43.25;101460.84;5124191;28;20048;-29
2022/05/13 02:41:14;;;;;;;0.10;0.10;;;;;;;22.26;43.24;101459.19;5126075;28;20410;-30
2022/05/13 02:43:29;;;;;;;0.10;0.10;;;;;;;22.27;43.34;101460.03;5096142;28;20373;-30
2022/05/13 02:45:55;;;;;;;0.10;0.10;;;;;;;22.27;43.34;101471.13;5126444;28;20047;-30
2022/05/13 02:48:20;;;;;;;0.10;0.10;;;;;;;22.27;43.35;101471.13;5120129;28;20102;-32
2022/05/13 02:50:47;;;;;;;0.10;0.10;;;;;;;22.27;43.21;101471.13;5126438;28;20506;-30
2022/05/13 02:53:13;;;;;;;0.10;0.10;;;;;;;22.27;43.39;101473.91;5108166;28;20086;-30
2022/05/13 02:55:39;;;;;;;0.10;0.10;;;;;;;22.26;43.31;101470.28;5127321;28;20130;-30
2022/05/13 02:58:07;;;;;;;0.10;0.10;;;;;;;22.27;43.18;101479.44;5122566;28;20086;-30
2022/05/13 03:00:33;;;;;;;0.10;0.10;;;;;;;22.27;43.31;101471.94;5126525;28;20413;-28
2022/05/13 03:02:59;;;;;;;0.10;0.10;;;;;;;22.26;43.30;101463.91;5125675;28;20181;-29
2022/05/13 03:05:26;;;;;;;0.10;0.10;;;;;;;22.27;43.40;101471.13;5102172;28;20500;-29
2022/05/13 03:07:52;;;;;;;0.10;0.10;;;;;;;22.27;43.23;101474.72;5103560;28;20133;-30
2022/05/13 03:10:18;;;;;;;0.10;0.10;;;;;;;22.26;43.27;101480.56;5126482;28;20126;-29
2022/05/13 03:12:44;;;;;;;0.10;0.10;;;;;;;22.25;43.39;101474.19;5124359;28;20051;-30
2022/05/13 03:15:10;;;;;;;0.10;0.10;;;;;;;22.26;43.35;101466.69;5125981;28;20416;-29
2022/05/13 03:17:36;;;;;;;0.10;0.10;;;;;;;22.26;43.26;101461.16;5121390;28;20130;-30
2022/05/13 03:20:05;;;;;;;0.10;0.10;;;;;;;22.25;43.28;101457.53;5123943;28;20130;-29
2022/05/13 03:22:30;;;;;;;0.10;0.10;;;;;;;22.25;43.25;101453.94;5126780;27;20070;-30
2022/05/13 03:24:56;;;;;;;0.10;0.10;;;;;;;22.26;43.23;101447.28;5121868;28;20057;-29
2022/05/13 03:27:22;;;;;;;0.10;0.10;;;;;;;22.26;43.30;101452.81;5126099;28;20035;-30
2022/05/13 03:29:47;;;;;;;0.10;0.10;;;;;;;22.25;43.23;101451.16;5121240;27;20051;-30
2022/05/13 03:32:13;;;;;;;0.10;0.10;;;;;;;22.25;43.31;101453.94;5124477;27;20051;-30
2022/05/13 03:34:39;;;;;;;0.10;0.10;;;;;;;22.25;43.31;101454.78;5122296;28;20099;-30
2022/05/13 03:37:05;;;;;;;0.10;0.10;;;;;;;22.24;43.27;101453.13;5125463;28;20513;-29
2022/05/13 03:39:31;;;;;;;0.10;0.10;;;;;;;22.24;43.31;101453.13;5107461;28;20087;-31
2022/05/13 03:41:56;;;;;;;0.10;0.10;;;;;;;22.26;43.25;101452.81;5125070;28;20428;-30
2022/05/13 03:44:22;;;;;;;0.10;0.10;;;;;;;22.24;43.33;101450.34;5123411;28;20047;-30
2022/05/13 03:46:48;;;;;;;0.10;0.10;;;;;;;22.25;43.32;101453.94;5122637;28;20039;-30
2022/05/13 03:49:14;;;;;;;0.10;0.10;;;;;;;22.25;43.25;101456.72;5124903;28;20123;-30
2022/05/13 03:51:39;;;;;;;0.10;0.10;;;;;;;22.24;43.35;101450.34;5125545;28;20047;-30
2022/05/13 03:54:05;;;;;;;0.10;0.10;;;;;;;22.24;43.24;101453.13;5125671;28;20100;-30
2022/05/13 03:56:31;;;;;;;0.10;0.10;;;;;;;22.24;43.27;101460.63;5124656;28;20437;-29
2022/05/13 03:58:57;;;;;;;0.10;0.10;;;;;;;22.25;43.28;101462.28;5124202;28;20126;-30
2022/05/13 04:01:22;;;;;;;0.10;0.10;;;;;;;22.25;43.17;101452.00;5125644;28;20047;-30
2022/05/13 04:03:48;;;;;;;0.10;0.10;;;;;;;22.25;43.31;101453.94;5124173;28;20043;-30
2022/05/13 04:09:01;;;;;;;0.10;0.10;;;;;;;22.23;43.36;101454.22;5108345;28;20074;-30
2022/05/13 04:11:30;;;;;;;0.10;0.10;;;;;;;22.24;43.27;101457.84;5125498;28;20131;-30
2022/05/13 04:16:42;;;;;;;0.10;0.10;;;;;;;22.24;43.19;101464.22;5109384;28;20359;-31
2022/05/13 04:19:08;;;;;;;0.10;0.10;;;;;;;22.23;43.29;101458.94;5105378;28;20088;-29
2022/05/13 04:21:36;;;;;;;0.10;0.10;;;;;;;22.23;43.25;101467.25;5126659;27;20390;-29
2022/05/13 04:24:05;;;;;;;0.10;0.10;;;;;;;22.23;43.35;101472.81;5126492;28;20089;-30
2022/05/13 04:26:30;;;;;;;0.10;0.10;;;;;;;22.23;43.36;101479.19;5124088;28;20067;-29
2022/05/13 04:28:57;;;;;;;0.10;0.10;;;;;;;22.23;43.22;101476.41;5119955;28;20078;-31
2022/05/13 04:31:25;;;;;;;0.10;0.10;;;;;;;22.23;43.25;101481.97;5104834;28;20118;-29
2022/05/13 04:33:52;;;;;;;0.10;0.10;;;;;;;22.23;43.28;101484.72;5122752;27;20509;-30
2022/05/13 04:36:19;;;;;;;0.20;0.20;;;;;;;22.24;43.28;101480.03;5122408;28;20120;-30
2022/05/13 04:38:45;;;;;;;0.10;0.10;;;;;;;22.22;43.34;101474.75;5119423;28;20070;-30
2022/05/13 04:43:57;;;;;;;0.10;0.10;;;;;;;22.23;43.32;101481.13;5108193;28;20142;-30
2022/05/13 04:46:23;;;;;;;0.10;0.10;;;;;;;22.23;43.24;101489.47;5124342;28;20063;-31
2022/05/13 04:48:51;;;;;;;0.10;0.10;;;;;;;22.22;43.31;101485.03;5120373;28;20056;-30
2022/05/13 04:51:17;;;;;;;0.00;0.00;;;;;;;22.22;43.33;101483.09;5124165;28;20043;-30
2022/05/13 04:53:44;;;;;;;0.10;0.10;;;;;;;22.23;43.22;101483.91;5122283;28;20130;-29
2022/05/13 04:56:11;;;;;;;0.10;0.10;;;;;;;22.23;43.22;101492.22;5122462;28;20473;-30
2022/05/13 04:58:38;;;;;;;0.10;0.10;;;;;;;22.23;43.20;101486.69;5124399;28;20082;-30
2022/05/13 05:01:05;;;;;;;0.10;0.10;;;;;;;22.24;43.30;101491.13;5097010;28;20134;-31
2022/05/13 05:03:32;;;;;;;0.00;0.00;;;;;;;22.22;43.28;101490.59;5122760;28;20039;-29
2022/05/13 05:05:59;;;;;;;0.10;0.10;;;;;;;22.21;43.29;101494.47;5123320;27;20075;-30
2022/05/13 05:08:25;;;;;;;0.10;0.10;;;;;;;22.22;43.30;101491.41;5101797;28;20067;-31
2022/05/13 05:10:51;;;;;;;0.10;0.10;;;;;;;22.22;43.35;101499.72;5122817;28;20043;-30
2022/05/13 05:13:19;;;;;;;0.10;0.10;;;;;;;22.22;43.31;101498.91;5125632;28;20046;-30
2022/05/13 05:15:45;;;;;;;;;;;;;;;22.21;43.39;101513.91;5121202;28;20182;-31
2022/05/13 05:18:12;;;;;;;0.10;0.10;;;;;;;22.20;43.23;101510.31;5121029;28;20062;-31
2022/05/13 05:20:37;;;;;;;0.10;0.10;;;;;;;22.21;43.22;101517.50;5123651;28;20083;-31
2022/05/13 05:23:03;;;;;;;0.10;0.10;;;;;;;22.20;43.35;101518.63;5120030;28;20047;-30
2022/05/13 05:25:29;;;;;;;0.10;0.10;;;;;;;22.20;43.28;101526.13;5123512;28;20516;-30
2022/05/13 05:27:55;;;;;;;0.10;0.10;;;;;;;22.21;43.15;101525.81;5117286;27;20099;-30
2022/05/13 05:30:21;;;;;;;0.10;0.10;;;;;;;22.22;43.22;101535.78;5119310;27;20130;-29
2022/05/13 05:32:47;;;;;;;0.10;0.10;;;;;;;22.21;43.10;101525.00;5120599;28;20051;-32
2022/05/13 05:35:17;;;;;;;0.10;0.10;;;;;;;22.20;43.08;101537.22;5118369;28;20472;-30
2022/05/13 05:37:42;;;;;;;0.10;0.10;;;;;;;22.20;43.07;101535.28;5123515;28;20131;-32
2022/05/13 05:40:09;;;;;;;0.10;0.10;;;;;;;22.20;42.89;101540.00;5103105;28;20043;-30
2022/05/13 05:42:37;;;;;;;0.10;0.10;;;;;;;22.21;43.15;101538.88;5122103;28;20042;-31
2022/05/13 05:45:03;;;;;;;;;;;;;;;22.21;43.06;101542.47;5119035;27;20047;-30
2022/05/13 05:47:29;;;;;;;0.10;0.10;;;;;;;22.19;43.00;101544.72;5121253;28;20247;-30
2022/05/13 05:49:57;;;;;;;0.10;0.10;;;;;;;22.20;43.02;101542.78;5119251;28;20676;-30
2022/05/13 05:52:22;;;;;;;0.03;0.03;;;;;;;22.20;43.06;101542.78;5120741;28;20079;-30
2022/05/13 05:57:34;;;;;;;0.10;0.10;;;;;;;22.19;43.05;101546.63;5104088;28;20180;-30
2022/05/13 06:00:00;;;;;;;0.10;0.10;;;;;;;22.20;42.98;101548.31;5121448;28;20150;-30
2022/05/13 06:02:26;;;;;;;0.10;0.10;;;;;;;22.20;42.83;101549.13;5124717;28;20503;-31
2022/05/13 06:04:52;;;;;;;0.10;0.10;;;;;;;22.20;42.95;101553.88;5117892;28;20046;-30
2022/05/13 06:07:18;;;;;;;0.10;0.10;;;;;;;22.20;42.85;101551.91;5119721;28;20537;-30
2022/05/13 06:09:48;;;;;;;0.10;0.10;;;;;;;22.20;42.81;101551.09;5120974;28;20482;-30
2022/05/13 06:12:14;;;;;;;0.10;0.10;;;;;;;22.19;42.86;101554.97;5118231;28;20039;-30
2022/05/13 06:14:40;;;;;;;0.10;0.10;;;;;;;22.19;42.81;101560.50;5118601;28;20055;-31
2022/05/13 06:17:08;;;;;;;0.10;0.10;;;;;;;22.20;42.96;101565.78;5122879;28;20067;-30
2022/05/13 06:19:34;;;;;;;0.10;0.10;;;;;;;22.20;42.84;101567.72;5116609;28;20474;-32
2022/05/13 06:21:59;;;;;;;0.10;0.10;;;;;;;22.20;42.83;101565.78;5122582;28;21207;-29
2022/05/13 06:24:25;;;;;;;0.10;0.10;;;;;;;22.18;42.91;101570.78;5122139;28;20458;-30
2022/05/13 06:26:51;;;;;;;0.10;0.10;;;;;;;22.19;42.88;101575.22;5104061;28;20050;-30
2022/05/13 06:29:20;;;;;;;0.10;0.10;;;;;;;22.17;42.71;101569.13;5122696;27;20515;-31
2022/05/13 06:31:45;;;;;;;0.10;0.10;;;;;;;22.18;42.81;101568.00;5123472;28;20136;-30
2022/05/13 06:34:12;;;;;;;0.10;0.10;;;;;;;22.18;42.72;101572.72;5121720;27;20456;-30
2022/05/13 06:36:38;;;;;;;0.10;0.10;;;;;;;22.19;42.50;101583.56;5124556;27;20127;-31
2022/05/13 06:39:04;;;;;;;0.10;0.10;;;;;;;22.19;42.56;101569.69;5119625;28;20050;-31
2022/05/13 06:41:31;;;;;;;0.10;0.10;;;;;;;22.19;42.63;101568.81;5098070;28;20226;-31
2022/05/13 06:43:57;;;;;;;0.10;0.10;;;;;;;22.19;42.80;101577.16;5117279;28;20070;-31
2022/05/13 06:46:23;;;;;;;0.10;0.10;;;;;;;22.18;42.54;101583.81;5118625;28;20083;-31
2022/05/13 06:48:48;;;;;;;0.10;0.10;;;;;;;22.21;42.75;101583.25;5116423;28;20047;-30
2022/05/13 06:51:16;;;;;;;0.10;0.10;;;;;;;22.18;42.57;101587.41;5124213;28;20047;-30
2022/05/13 06:53:42;;;;;;;0.10;0.10;;;;;;;22.19;42.57;101588.25;5116657;28;20050;-30
2022/05/13 06:56:08;;;;;;;0.10;0.10;;;;;;;22.20;42.58;101589.94;5116494;28;20142;-31
2022/05/13 06:58:34;;;;;;;0.10;0.10;;;;;;;22.19;42.53;101591.88;5111073;28;20074;-31
2022/05/13 07:01:01;;;;;;;0.10;0.10;;;;;;;22.19;42.66;101599.34;5116266;28;20134;-30
2022/05/13 07:03:27;;;;;;;0.10;0.10;;;;;;;22.19;42.63;101599.34;5119546;28;20473;-31
2022/05/13 07:05:53;;;;;;;0.10;0.10;;;;;;;22.18;42.46;101600.47;5123338;28;20039;-32
2022/05/13 07:08:18;;;;;;;0.10;0.10;;;;;;;22.17;42.49;101599.63;5119089;28;20990;-30
2022/05/13 07:10:45;;;;;;;0.10;0.10;;;;;;;22.19;42.47;101611.31;5122510;28;20045;-30
2022/05/13 07:13:12;;;;;;;0.10;0.10;;;;;;;22.18;42.50;101611.56;5120874;28;20451;-32
2022/05/13 07:15:38;;;;;;;0.10;0.10;;;;;;;22.18;42.46;101611.56;5120878;28;20124;-30
2022/05/13 07:18:04;;;;;;;0.10;0.10;;;;;;;22.18;42.41;101617.13;5118651;28;20043;-32
2022/05/13 07:20:30;;;;;;;0.10;0.10;;;;;;;22.17;42.50;101621.00;5123526;28;20070;-30
2022/05/13 07:22:56;;;;;;;0.10;0.10;;;;;;;22.18;42.47;101617.13;5119831;28;20350;-30
2022/05/13 07:25:22;;;;;;;0.10;0.10;;;;;;;22.18;42.42;101628.22;5117416;28;20082;-30
2022/05/13 07:27:48;;;;;;;0.10;0.10;;;;;;;22.18;42.36;101619.88;5118461;28;20079;-29
2022/05/13 07:30:14;;;;;;;0.10;0.10;;;;;;;22.17;42.39;101627.38;5114002;28;20047;-31
2022/05/13 07:32:41;;;;;;;0.10;0.10;;;;;;;22.17;42.38;101635.72;5103394;28;20069;-30
2022/05/13 07:35:08;;;;;;;0.10;0.10;;;;;;;22.16;42.35;101631.28;5120983;27;20533;-30
2022/05/13 07:37:35;;;;;;;0.10;0.10;;;;;;;22.17;42.27;101637.66;5121752;28;20086;-31
2022/05/13 07:42:48;;;;;;;0.10;0.10;;;;;;;22.17;42.26;101630.16;5091286;28;20525;-30
2022/05/13 07:45:14;;;;;;;0.10;0.10;;;;;;;22.16;42.43;101639.59;5122983;27;20058;-30
2022/05/13 07:47:42;;;;;;;0.10;0.10;;;;;;;22.16;42.23;101628.50;5122029;28;21307;-32
2022/05/13 07:50:10;;;;;;;0.10;0.10;;;;;;;22.17;42.27;101629.34;5117972;28;20075;-30
2022/05/13 07:52:41;;;;;;;0.10;0.10;;;;;;;22.17;42.22;101630.16;5122102;28;20138;-30
2022/05/13 07:55:10;;;;;;;0.10;0.10;;;;;;;22.16;42.33;101624.91;5121753;27;20178;-30
2022/05/13 07:57:40;;;;;;;0.10;0.10;;;;;;;22.16;42.13;101630.44;5121198;27;20700;-31
2022/05/13 08:00:38;;;;;;;0.10;0.10;;;;;;;22.16;42.17;101634.06;5122014;28;20126;-31
2022/05/13 08:02:55;;;;;;;0.10;0.10;;;;;;;22.16;42.24;101634.06;5105659;28;20043;-28
2022/05/13 08:05:22;;;;;;;0.10;0.10;;;;;;;21.93;39.43;101634.66;5122165;28;20355;-29
2022/05/13 08:07:48;;;;;;;0.10;0.10;;;;;;;22.11;40.74;101641.53;5120497;28;20129;-31
2022/05/13 08:10:14;;;;;;;0.10;0.10;;;;;;;22.16;40.70;101634.06;5113858;27;20146;-28
2022/05/13 08:12:41;;;;;;;0.10;0.10;;;;;;;22.16;41.11;101636.81;5117932;28;20047;-28
2022/05/13 08:15:06;;;;;;;0.10;0.10;;;;;;;22.18;41.44;101633.75;5114789;28;20122;-28
2022/05/13 08:17:33;;;;;;;0.10;0.10;;;;;;;22.19;41.36;101636.25;5116294;28;20047;-28
2022/05/13 08:19:59;;;;;;;0.10;0.10;;;;;;;22.21;41.31;101642.34;5114444;28;20096;-31
2022/05/13 08:22:25;;;;;;;0.10;0.10;;;;;;;22.22;41.47;101644.00;5122799;28;20109;-30
2022/05/13 08:24:51;;;;;;;0.10;0.10;;;;;;;22.21;41.54;101645.13;5116940;28;20382;-30
2022/05/13 08:27:17;;;;;;;0.10;0.10;;;;;;;22.22;41.76;101651.50;5114353;27;20726;-31
2022/05/13 08:29:42;;;;;;;0.10;0.10;;;;;;;22.23;41.45;101642.88;5118656;28;20467;-30
2022/05/13 08:32:08;;;;;;;0.10;0.10;;;;;;;22.24;41.50;101640.97;5122804;28;20053;-29
2022/05/13 08:34:34;;;;;;;0.10;0.10;;;;;;;22.24;41.50;101650.13;5115951;28;20051;-30
2022/05/13 08:36:59;;;;;;;0.10;0.10;;;;;;;22.24;41.56;101639.00;5117740;28;20096;-30
2022/05/13 08:39:25;;;;;;;0.10;0.10;;;;;;;22.26;41.57;101638.72;5113194;28;20429;-31
2022/05/13 08:42:36;;;;;;;0.22;0.17;;;;;;;22.26;41.56;101645.09;5102145;28;20051;-30
2022/05/13 08:45:04;;;;;;;0.10;0.10;;;;;;;22.27;41.51;101645.91;5102158;28;20047;-29
2022/05/13 08:47:44;;;;;;;0.00;0.00;;;;;;;22.28;41.56;101653.97;5115233;28;20553;-30
2022/05/13 08:50:32;;;;;;;0.10;0.10;;;;;;;21.88;39.82;101645.75;5112186;28;20546;-34
2022/05/13 08:53:11;;;;;;;0.10;0.10;;;;;;;22.23;41.18;101648.44;5111078;28;20035;-30
2022/05/13 08:55:45;;;;;;;0.10;0.10;;;;;;;22.34;41.16;101649.22;5113812;28;20154;-30
2022/05/13 08:58:22;;;;;;;0.10;0.10;;;;;;;22.39;41.19;101648.38;5115663;28;20277;-30
2022/05/13 09:00:50;;;;;;;0.10;0.10;;;;;;;22.41;41.11;101651.69;5114434;27;20090;-30
2022/05/13 09:03:36;;;;;;;;;;;;;;;22.43;40.94;101644.75;5116762;27;20495;-30
2022/05/13 09:06:06;;;;;;;0.10;0.10;;;;;;;22.43;41.03;101649.47;5100886;28;20338;-29
2022/05/13 09:08:41;;;;;;;0.10;0.10;;;;;;;22.45;41.09;101650.84;5117934;27;20529;-31
2022/05/13 09:14:30;;;;;;;0.10;0.10;;;;;;;22.24;39.13;101657.59;5148985;27;20510;-30
2022/05/13 09:19:55;;;;;;;0.10;0.10;;;;;;;22.45;39.75;101652.75;5158846;27;20209;-28
2022/05/13 09:22:21;;;;;;;0.10;0.10;;;;;;;22.47;39.93;101647.78;5136432;27;20528;-28
2022/05/13 09:24:46;;;;;;;0.10;0.10;;;;;;;;;;5141360;27;20051;-28
2022/05/13 09:27:49;;;;;;;0.10;0.10;;;;;;;22.51;40.05;101641.38;5126672;27;20065;-29
2022/05/13 09:30:19;;;;;;;0.10;0.10;;;;;;;22.54;40.13;101648.31;5145186;27;20081;-30
2022/05/13 09:32:44;;;;;;;0.10;0.10;;;;;;;22.55;40.14;101652.72;5139091;27;21236;-30
2022/05/13 09:35:24;;;;;;;0.10;0.10;;;;;;;22.56;40.14;101650.78;5135594;27;20034;-31
2022/05/13 09:37:49;;;;;;;0.10;0.10;;;;;;;22.48;39.59;101647.47;5137604;27;20079;-30
2022/05/13 09:42:54;;;;;;;0.10;0.10;;;;;;;22.60;39.69;101649.09;5160262;27;20133;-28
2022/05/13 09:48:16;;;;;;;0.10;0.10;;;;;;;22.61;39.87;101647.97;5150522;27;20197;-29
2022/05/13 09:50:44;;;;;;;0.10;0.10;;;;;;;22.63;39.83;101642.97;5157403;27;20130;-27
2022/05/13 09:55:49;;;;;;;0.10;0.10;;;;;;;22.65;40.06;101647.09;5155935;27;20198;-28
2022/05/13 09:58:22;;;;;;;0.10;0.10;;;;;;;22.66;39.98;101639.59;5156490;27;20492;-28
2022/05/13 10:00:51;;;;;;;0.10;0.10;;;;;;;22.66;39.98;101645.97;5160478;27;20106;-29
2022/05/13 10:03:20;;;;;;;0.10;0.10;;;;;;;22.67;39.96;101646.84;5133429;27;20475;-29
2022/05/13 10:06:05;;;;;;;0.10;0.10;;;;;;;22.68;40.04;101652.09;5136967;27;20091;-31
2022/05/13 10:08:37;;;;;;;0.10;0.10;;;;;;;22.69;40.02;101647.38;5137839;27;20045;-29
2022/05/13 10:14:01;;;;;;;0.10;0.10;;;;;;;22.71;39.96;101650.66;5142054;27;20374;-30
2022/05/13 10:16:44;;;;;;;0.10;0.10;;;;;;;22.72;39.98;101650.41;5160175;27;20074;-29
2022/05/13 10:19:18;;;;;;;0.10;0.10;;;;;;;22.73;39.94;101648.44;5155424;27;20078;-30
2022/05/13 10:21:49;;;;;;;0.10;0.10;;;;;;;22.73;40.04;101651.22;5156951;27;20100;-30
2022/05/13 10:24:38;;;;;;;0.10;0.10;;;;;;;22.73;40.09;101648.44;5135766;27;20092;-30
2022/05/13 10:27:07;;;;;;;0.10;0.10;;;;;;;22.74;39.99;101652.88;5152115;27;20035;-30
2022/05/13 10:29:39;;;;;;;0.10;0.10;;;;;;;22.75;40.03;101654.53;5154365;27;20078;-30
2022/05/13 10:32:13;;;;;;;0.10;0.10;;;;;;;22.76;40.02;101653.44;5153541;27;20085;-32
2022/05/13 10:34:43;;;;;;;0.10;0.10;;;;;;;22.78;40.00;101653.97;5155799;27;20086;-30
2022/05/13 10:37:31;;;;;;;0.10;0.10;;;;;;;22.77;39.92;101655.91;5153843;27;20254;-30
2022/05/13 10:40:07;;;;;;;0.00;0.00;;;;;;;22.58;38.24;101656.84;5139775;27;20046;-29
2022/05/13 10:42:37;;;;;;;0.10;0.10;;;;;;;22.72;38.65;101652.34;5155517;27;20137;-31
2022/05/13 10:45:10;;;;;;;0.10;0.10;;;;;;;22.77;38.93;101650.38;5154422;27;20219;-29
2022/05/13 10:47:41;;;;;;;0.10;0.10;;;;;;;22.78;39.16;101652.03;5136473;27;20505;-31
2022/05/13 10:50:16;;;;;;;0.10;0.10;;;;;;;22.81;39.18;101660.91;5117059;27;20197;-31
2022/05/13 10:53:06;;;;;;;0.10;0.10;;;;;;;22.82;39.24;101659.78;5154174;27;20046;-31
2022/05/13 10:55:57;;;;;;;0.10;0.10;;;;;;;22.84;39.28;101658.38;5151600;27;20204;-29
2022/05/13 10:58:49;;;;;;;0.10;0.10;;;;;;;22.84;39.33;101661.16;5130248;27;20138;-29
2022/05/13 11:01:41;;;;;;;0.10;0.10;;;;;;;22.84;39.32;101655.63;5138343;27;20065;-31
2022/05/13 11:04:20;;;;;;;0.10;0.10;;;;;;;22.86;39.38;101660.88;5136296;27;20082;-30
2022/05/13 11:07:00;;;;;;;0.00;0.00;;;;;;;22.86;39.50;101656.13;5144710;27;20141;-31
2022/05/13 11:09:47;;;;;;;0.10;0.10;;;;;;;22.87;39.28;101643.06;5145794;27;20509;-30
2022/05/13 11:12:42;;;;;;;0.00;0.00;;;;;;;22.89;39.55;101649.19;5109372;27;20472;-30
2022/05/13 11:15:34;;;;;;;0.10;0.10;;;;;;;22.90;39.18;101653.66;5129899;27;20157;-32
2022/05/13 11:18:14;;;;;;;0.10;0.10;;;;;;;22.91;39.48;101646.97;5124286;27;20057;-31
2022/05/13 11:20:45;;;;;;;0.10;0.10;;;;;;;22.92;39.56;101649.44;5135790;27;20485;-31
2022/05/13 11:23:20;;;;;;;0.10;0.10;;;;;;;22.57;38.23;101646.88;5139769;27;20050;-30
2022/05/13 11:26:26;;;;;;;0.10;0.10;;;;;;;22.78;38.54;101645.63;5139109;27;20199;-30
2022/05/13 11:29:03;;;;;;;0.10;0.10;;;;;;;22.89;38.74;101651.97;5113534;27;20081;-29
2022/05/13 11:31:48;;;;;;;0.10;0.10;;;;;;;22.90;38.82;101643.38;5122740;27;20047;-30
2022/05/13 11:34:29;;;;;;;0.10;0.10;;;;;;;22.93;38.84;101650.31;5136916;27;20133;-30
2022/05/13 11:36:59;;;;;;;0.10;0.10;;;;;;;22.94;38.86;101650.00;5141282;27;20494;-31
2022/05/13 11:42:28;;;;;;;0.10;0.10;;;;;;;22.95;39.04;101646.09;5138282;27;20336;-29
2022/05/13 11:45:25;;;;;;;0.10;0.10;;;;;;;22.98;39.13;101650.25;5120360;27;20125;-29
2022/05/13 11:50:29;;;;;;;0.10;0.10;;;;;;;22.97;39.06;101652.22;5156887;27;20206;-29
2022/05/13 11:52:56;;;;;;;0.10;0.10;;;;;;;22.98;39.00;101656.63;5154511;27;20130;-32
2022/05/13 11:58:54;;;;;;;0.10;0.10;;;;;;;22.83;36.76;101650.31;5160377;27;20209;-28
2022/05/13 12:09:31;;;;;;;0.10;0.10;;;;;;;23.00;37.84;101664.69;5170871;27;20116;-28
2022/05/13 12:12:06;;;;;;;0.10;0.10;;;;;;;23.01;37.90;101661.63;5161983;27;20074;-31
2022/05/13 12:17:55;;;;;;;0.10;0.10;;;;;;;23.03;37.93;101658.56;5166688;27;20221;-28
2022/05/13 12:20:44;;;;;;;0.10;0.10;;;;;;;23.04;38.07;101657.44;5122035;27;20146;-28
2022/05/13 12:23:35;;;;;;;0.10;0.10;;;;;;;23.04;38.12;101660.19;5119356;27;20542;-30
2022/05/13 12:26:05;;;;;;;0.10;0.10;;;;;;;23.05;38.09;101650.75;5123794;27;20084;-30
2022/05/13 12:28:38;;;;;;;0.10;0.10;;;;;;;23.06;38.15;101657.97;5141642;27;20673;-30
2022/05/13 12:31:34;;;;;;;0.10;0.10;;;;;;;23.07;38.06;101647.69;5120845;27;20089;-30